Time;durP1;ratioP1;P1;durP2;ratioP2;P2;SDS_P1;SDS_P2;PMS_P1;PMS_P2;Temp;Humidity;BMP_temperature;BMP_pressure;BME280_temperature;BME280_humidity;BME280_pressure;Samples;Min_cycle;Max_cycle;Signal;HPM_P1;HPM_P2
2023/10/27 00:00:34;;;;;;;29.25;20.67;;;;;;;10.13;100.00;99213.00;6215328;23;20403;-81
2023/10/27 00:03:00;;;;;;;28.08;19.08;;;;;;;10.14;100.00;99212.06;6215304;23;20036;-77
2023/10/27 00:05:25;;;;;;;31.63;20.70;;;;;;;10.13;100.00;99218.16;6214984;23;20062;-80
2023/10/27 00:07:50;;;;;;;30.95;19.88;;;;;;;10.11;100.00;99219.22;6212592;23;20434;-78
2023/10/27 00:10:16;;;;;;;32.30;21.00;;;;;;;10.10;100.00;99215.81;6214699;23;20020;-78
2023/10/27 00:12:41;;;;;;;29.95;20.40;;;;;;;10.11;100.00;99224.38;6215058;23;20088;-74
2023/10/27 00:15:07;;;;;;;31.73;21.27;;;;;;;9.98;100.00;99184.19;6215094;23;20000;-75
2023/10/27 00:17:32;;;;;;;29.88;20.48;;;;;;;10.04;100.00;99201.72;6215121;23;20039;-75
2023/10/27 00:19:58;;;;;;;29.55;19.67;;;;;;;10.15;100.00;99216.25;6214741;23;20080;-75
2023/10/27 00:22:25;;;;;;;34.65;21.45;;;;;;;10.17;100.00;99216.94;6215146;23;20036;-75
2023/10/27 00:24:51;;;;;;;31.17;19.98;;;;;;;10.17;100.00;99213.53;6214916;23;20001;-76
2023/10/27 00:27:16;;;;;;;32.67;21.80;;;;;;;10.12;100.00;99203.59;6214345;23;20019;-78
2023/10/27 00:29:42;;;;;;;35.42;21.35;;;;;;;10.03;100.00;99187.19;6214812;23;20000;-76
2023/10/27 00:32:07;;;;;;;33.83;22.60;;;;;;;10.17;100.00;99201.47;6214698;23;20075;-76
2023/10/27 00:34:32;;;;;;;33.92;21.48;;;;;;;10.16;100.00;99197.25;6214580;23;20011;-76
2023/10/27 00:36:58;;;;;;;30.40;20.08;;;;;;;9.94;100.00;99161.41;6214976;23;20051;-78
2023/10/27 00:39:23;;;;;;;34.30;22.77;;;;;;;10.15;100.00;99192.22;6214838;23;20023;-76
2023/10/27 00:41:48;;;;;;;35.35;21.45;;;;;;;10.05;100.00;99169.81;6214917;23;20475;-78
2023/10/27 00:44:14;;;;;;;30.60;20.50;;;;;;;10.16;100.00;99183.53;6214644;23;20071;-77
2023/10/27 00:46:39;;;;;;;32.85;22.10;;;;;;;10.09;100.00;99174.69;6214669;23;20407;-75
2023/10/27 00:49:05;;;;;;;31.65;20.10;;;;;;;10.12;100.00;99179.59;6188264;23;19996;-76
2023/10/27 00:51:30;;;;;;;36.45;22.42;;;;;;;10.15;100.00;99185.31;6186950;23;20005;-75
2023/10/27 00:53:57;;;;;;;32.20;21.50;;;;;;;10.15;100.00;99185.31;6215192;23;20012;-77
2023/10/27 00:56:23;;;;;;;32.55;22.45;;;;;;;10.17;100.00;99185.97;6214650;23;20071;-76
2023/10/27 00:58:49;;;;;;;30.35;20.70;;;;;;;10.08;100.00;99171.31;6216087;23;20017;-76
2023/10/27 01:01:17;;;;;;;31.08;21.52;;;;;;;10.00;100.00;99161.66;6216647;23;20009;-77
2023/10/27 01:03:43;;;;;;;31.60;20.77;;;;;;;10.19;100.00;99186.66;6217188;23;20364;-76
2023/10/27 01:06:09;;;;;;;32.50;21.38;;;;;;;10.09;100.00;99166.97;6216840;23;20019;-76
2023/10/27 01:08:34;;;;;;;29.15;20.48;;;;;;;10.20;100.00;99184.91;6214584;23;20091;-77
2023/10/27 01:11:00;;;;;;;32.72;21.60;;;;;;;10.10;100.00;99173.75;6216514;23;20027;-75
2023/10/27 01:13:26;;;;;;;30.73;19.52;;;;;;;10.17;100.00;99180.00;6216570;23;20004;-76
2023/10/27 01:15:51;;;;;;;31.27;20.40;;;;;;;10.10;100.00;99171.97;6216553;23;20012;-77
2023/10/27 01:18:16;;;;;;;29.60;20.05;;;;;;;10.04;100.00;99157.06;6216624;23;20001;-75
2023/10/27 01:20:42;;;;;;;32.75;21.40;;;;;;;10.19;100.00;99178.09;6216710;23;20079;-74
2023/10/27 01:23:07;;;;;;;31.75;20.80;;;;;;;10.19;100.00;99173.75;6216637;23;20031;-82
2023/10/27 01:25:32;;;;;;;32.72;20.63;;;;;;;10.18;100.00;99181.63;6216636;23;20015;-75
2023/10/27 01:27:58;;;;;;;29.88;20.90;;;;;;;10.19;100.00;99175.53;6216620;23;20000;-75
2023/10/27 01:30:24;;;;;;;29.15;21.95;;;;;;;10.20;100.00;99177.97;6216262;23;20469;-75
2023/10/27 01:32:49;;;;;;;30.92;19.63;;;;;;;10.11;100.00;99163.28;6216437;23;20010;-75
2023/10/27 01:35:15;;;;;;;29.02;19.55;;;;;;;10.18;100.00;99173.91;6216630;23;20024;-74
2023/10/27 01:37:40;;;;;;;29.70;18.45;;;;;;;10.12;100.00;99162.34;6216343;23;20024;-77
2023/10/27 01:40:06;;;;;;;30.88;17.85;;;;;;;10.20;100.00;99177.16;6216516;23;20463;-76
2023/10/27 01:42:34;;;;;;;28.70;17.20;;;;;;;10.19;100.00;99175.53;6216496;23;20001;-80
2023/10/27 01:45:05;;;;;;;28.20;17.02;;;;;;;10.06;100.00;99161.13;6216310;23;20027;-74
2023/10/27 01:47:31;;;;;;;26.55;16.63;;;;;;;10.17;100.00;99173.09;6216011;23;20032;-80
2023/10/27 01:49:56;;;;;;;25.67;16.52;;;;;;;10.18;100.00;99161.00;6216498;23;20339;-79
2023/10/27 01:52:21;;;;;;;26.38;16.35;;;;;;;9.91;100.00;99121.19;6216102;23;20008;-77
2023/10/27 01:54:47;;;;;;;24.10;16.10;;;;;;;10.18;100.00;99161.81;6189896;23;20001;-80
2023/10/27 01:57:12;;;;;;;28.15;15.90;;;;;;;10.07;100.00;99142.13;6215933;23;20020;-81
2023/10/27 01:59:37;;;;;;;26.02;15.82;;;;;;;10.18;100.00;99153.25;6216346;23;20004;-80
2023/10/27 02:02:03;;;;;;;26.38;15.18;;;;;;;10.18;100.00;99158.41;6216508;23;20004;-80
2023/10/27 02:04:28;;;;;;;23.90;15.05;;;;;;;10.20;100.00;99152.16;6216436;23;20031;-76
2023/10/27 02:06:55;;;;;;;24.25;15.63;;;;;;;10.08;100.00;99135.19;6216231;23;20411;-81
2023/10/27 02:09:20;;;;;;;24.65;15.02;;;;;;;10.16;100.00;99155.97;6215873;23;20387;-80
2023/10/27 02:11:46;;;;;;;21.42;14.43;;;;;;;10.17;100.00;99151.63;6213685;23;20004;-77
2023/10/27 02:14:12;;;;;;;26.58;15.32;;;;;;;10.09;100.00;99141.97;6215855;23;20004;-79
2023/10/27 02:16:37;;;;;;;26.67;14.65;;;;;;;10.17;100.00;99149.88;6215934;23;20004;-79
2023/10/27 02:19:03;;;;;;;24.70;14.32;;;;;;;10.16;100.00;99144.84;6216352;23;20130;-80
2023/10/27 02:21:28;;;;;;;27.60;15.98;;;;;;;10.16;100.00;99143.09;6216047;23;20008;-78
2023/10/27 02:23:53;;;;;;;24.23;15.23;;;;;;;10.16;100.00;99137.94;6216477;23;20419;-79
2023/10/27 02:26:19;;;;;;;23.20;14.85;;;;;;;10.18;100.00;99137.78;6215851;23;20004;-81
2023/10/27 02:28:44;;;;;;;24.85;14.75;;;;;;;10.15;100.00;99136.31;6215688;23;20457;-78
2023/10/27 02:31:10;;;;;;;22.77;14.60;;;;;;;10.11;100.00;99129.75;6215589;23;20082;-80
2023/10/27 02:33:36;;;;;;;23.08;13.95;;;;;;;10.16;100.00;99131.94;6215732;23;20044;-80
2023/10/27 02:36:01;;;;;;;24.92;13.75;;;;;;;10.18;100.00;99132.63;6215958;23;20008;-80
2023/10/27 02:38:27;;;;;;;24.90;14.57;;;;;;;10.16;100.00;99135.34;6216076;23;20004;-81
2023/10/27 02:40:52;;;;;;;24.10;15.05;;;;;;;10.10;100.00;99124.75;6215849;23;20005;-80
2023/10/27 02:43:18;;;;;;;24.02;14.23;;;;;;;10.16;100.00;99129.38;6215687;23;20051;-81
2023/10/27 02:45:43;;;;;;;22.70;13.52;;;;;;;10.16;100.00;99134.53;6215849;23;20088;-78
2023/10/27 02:48:08;;;;;;;24.30;13.57;;;;;;;10.13;100.00;99127.88;6215620;23;20043;-75
2023/10/27 02:50:34;;;;;;;21.98;14.80;;;;;;;10.16;100.00;99129.38;6213436;23;20005;-77
2023/10/27 02:52:59;;;;;;;24.33;14.25;;;;;;;10.14;100.00;99129.50;6215347;23;20005;-76
2023/10/27 02:55:24;;;;;;;25.02;14.13;;;;;;;10.12;100.00;99131.38;6215681;23;20058;-77
2023/10/27 02:57:50;;;;;;;23.85;14.40;;;;;;;10.13;100.00;99129.63;6215205;23;20044;-80
2023/10/27 03:00:15;;;;;;;25.08;15.00;;;;;;;9.95;100.00;99096.78;6215693;23;20012;-82
2023/10/27 03:02:41;;;;;;;24.33;14.02;;;;;;;10.13;100.00;99121.88;6215826;23;20397;-82
2023/10/27 03:05:06;;;;;;;23.40;14.07;;;;;;;10.11;100.00;99121.22;6213368;23;20004;-81
2023/10/27 03:07:32;;;;;;;20.00;12.20;;;;;;;10.01;100.00;99110.88;6215551;23;20418;-81
2023/10/27 03:09:57;;;;;;;22.15;13.68;;;;;;;10.09;100.00;99118.78;6215570;23;20000;-80
2023/10/27 03:12:22;;;;;;;21.75;13.05;;;;;;;10.05;100.00;99114.84;6215347;23;20389;-79
2023/10/27 03:14:48;;;;;;;21.60;13.73;;;;;;;9.97;100.00;99101.81;6215200;23;20005;-79
2023/10/27 03:17:13;;;;;;;22.30;13.25;;;;;;;9.99;100.00;99103.28;6215741;23;20005;-79
2023/10/27 03:19:38;;;;;;;21.23;12.60;;;;;;;10.10;100.00;99112.66;6215314;23;20000;-81
2023/10/27 03:22:04;;;;;;;19.40;12.93;;;;;;;9.97;100.00;99100.03;6214950;23;20004;-81
2023/10/27 03:24:29;;;;;;;22.83;12.55;;;;;;;10.01;100.00;99109.13;6215574;23;20010;-79
2023/10/27 03:26:54;;;;;;;22.90;12.75;;;;;;;10.06;100.00;99119.88;6215566;23;20083;-79
2023/10/27 03:29:20;;;;;;;21.13;13.40;;;;;;;10.07;100.00;99113.75;6215174;23;20039;-80
2023/10/27 03:31:45;;;;;;;21.83;13.20;;;;;;;10.10;100.00;99114.44;6215550;23;20013;-81
2023/10/27 03:34:10;;;;;;;26.33;14.18;;;;;;;10.10;100.00;99111.84;6215499;23;20008;-80
2023/10/27 03:36:36;;;;;;;19.50;12.73;;;;;;;10.11;100.00;99116.88;6215282;23;20458;-80
2023/10/27 03:39:01;;;;;;;20.58;13.52;;;;;;;10.10;100.00;99107.50;6215572;23;20050;-77
2023/10/27 03:41:26;;;;;;;20.83;12.48;;;;;;;10.10;100.00;99110.09;6189328;23;20005;-81
2023/10/27 03:43:52;;;;;;;22.33;13.02;;;;;;;10.11;100.00;99103.97;6215333;23;20004;-82
2023/10/27 03:46:17;;;;;;;22.40;13.60;;;;;;;9.99;100.00;99084.44;6215592;23;20001;-81
2023/10/27 03:48:44;;;;;;;20.88;12.65;;;;;;;9.84;100.00;99068.56;6215518;23;20419;-77
2023/10/27 03:51:11;;;;;;;21.25;12.93;;;;;;;10.07;100.00;99105.22;6215206;23;20008;-78
2023/10/27 03:53:36;;;;;;;22.48;12.50;;;;;;;9.83;100.00;99061.75;6215591;23;20312;-75
2023/10/27 03:56:01;;;;;;;21.80;12.70;;;;;;;9.95;100.00;99081.31;6215542;23;20007;-74
2023/10/27 03:58:27;;;;;;;21.77;11.98;;;;;;;10.07;100.00;99100.84;6214875;23;20423;-76
2023/10/27 04:00:52;;;;;;;21.50;12.25;;;;;;;10.07;100.00;99100.84;6214891;23;20014;-80
2023/10/27 04:03:17;;;;;;;21.90;13.32;;;;;;;10.03;100.00;99096.94;6212680;23;20070;-77
2023/10/27 04:05:43;;;;;;;20.80;13.02;;;;;;;10.06;100.00;99099.22;6188583;23;20001;-81
2023/10/27 04:08:08;;;;;;;19.98;12.65;;;;;;;10.03;100.00;99104.66;6215255;23;20414;-75
2023/10/27 04:10:37;;;;;;;21.63;12.15;;;;;;;9.91;100.00;99076.56;6215248;23;20331;-77
2023/10/27 04:13:04;;;;;;;21.27;12.15;;;;;;;10.01;100.00;99091.06;6214884;23;20434;-75
2023/10/27 04:15:29;;;;;;;18.98;12.43;;;;;;;10.00;100.00;99094.59;6214836;23;20028;-74
2023/10/27 04:17:55;;;;;;;20.00;12.63;;;;;;;9.97;100.00;99099.22;6214524;23;20016;-74
2023/10/27 04:20:20;;;;;;;19.85;11.32;;;;;;;9.97;100.00;99101.81;6214773;23;20008;-75
2023/10/27 04:22:45;;;;;;;23.13;13.13;;;;;;;9.95;100.00;99094.22;6214854;23;20008;-75
2023/10/27 04:25:12;;;;;;;17.95;11.82;;;;;;;9.91;100.00;99095.41;6214699;23;20023;-76
2023/10/27 04:27:37;;;;;;;20.92;12.18;;;;;;;9.98;100.00;99103.44;6214868;23;20327;-75
2023/10/27 04:30:07;;;;;;;18.10;11.82;;;;;;;9.95;100.00;99104.53;6214885;23;20001;-76
2023/10/27 04:32:32;;;;;;;21.00;11.63;;;;;;;9.85;100.00;99082.25;6213984;23;20387;-74
2023/10/27 04:34:58;;;;;;;18.23;11.23;;;;;;;9.93;100.00;99103.00;6214856;23;20000;-75
2023/10/27 04:37:23;;;;;;;17.75;10.85;;;;;;;9.92;100.00;99096.22;6214695;23;20011;-75
2023/10/27 04:39:48;;;;;;;20.00;11.90;;;;;;;9.91;100.00;99099.75;6214992;23;20486;-77
2023/10/27 04:42:14;;;;;;;19.52;11.73;;;;;;;9.74;100.00;99080.63;6214845;23;20331;-77
2023/10/27 04:44:39;;;;;;;20.05;12.23;;;;;;;9.83;100.00;99100.41;6214616;23;20012;-76
2023/10/27 04:47:04;;;;;;;19.08;11.43;;;;;;;9.80;100.00;99089.56;6188009;23;20011;-77
2023/10/27 04:49:30;;;;;;;18.02;11.82;;;;;;;9.75;100.00;99082.25;6214889;23;20005;-77
2023/10/27 04:51:55;;;;;;;20.70;12.07;;;;;;;9.89;100.00;99109.41;6214797;23;20062;-78
2023/10/27 04:54:20;;;;;;;18.73;11.18;;;;;;;9.59;100.00;99062.16;6214900;23;20465;-80
2023/10/27 04:56:46;;;;;;;19.27;11.18;;;;;;;9.90;100.00;99111.03;6214813;23;20011;-81
2023/10/27 04:59:11;;;;;;;20.00;11.32;;;;;;;9.92;100.00;99109.13;6214536;23;20438;-80
2023/10/27 05:01:36;;;;;;;18.95;12.35;;;;;;;9.92;100.00;99098.81;6214743;23;20004;-81
2023/10/27 05:04:02;;;;;;;20.77;11.75;;;;;;;9.80;100.00;99090.38;6215054;23;20023;-81
2023/10/27 05:06:30;;;;;;;18.85;11.27;;;;;;;9.91;100.00;99104.91;6214944;23;20415;-79
2023/10/27 05:08:55;;;;;;;20.55;10.98;;;;;;;9.82;100.00;99087.66;6214708;23;20011;-78
2023/10/27 05:11:21;;;;;;;16.13;11.25;;;;;;;9.87;100.00;99099.22;6214720;23;20008;-79
2023/10/27 05:13:46;;;;;;;17.33;10.88;;;;;;;9.87;100.00;99095.84;6188035;23;20096;-80
2023/10/27 05:16:12;;;;;;;20.98;11.13;;;;;;;9.78;100.00;99076.81;6214852;23;20004;-81
2023/10/27 05:18:37;;;;;;;18.40;11.23;;;;;;;9.82;100.00;99093.63;6214610;23;20016;-80
2023/10/27 05:21:02;;;;;;;19.98;12.25;;;;;;;9.78;100.00;99082.78;6214514;23;20005;-80
2023/10/27 05:23:28;;;;;;;20.52;12.48;;;;;;;9.81;100.00;99092.00;6214727;23;20415;-80
2023/10/27 05:25:53;;;;;;;20.88;12.45;;;;;;;9.80;100.00;99090.38;6214661;23;20011;-79
2023/10/27 05:28:19;;;;;;;20.10;12.75;;;;;;;9.73;100.00;99076.41;6212394;23;20043;-82
2023/10/27 05:30:46;;;;;;;19.02;12.43;;;;;;;9.78;100.00;99089.72;6212626;23;20096;-79
2023/10/27 05:33:12;;;;;;;17.17;11.35;;;;;;;9.77;100.00;99086.31;6214385;23;20419;-80
2023/10/27 05:35:37;;;;;;;18.10;11.35;;;;;;;9.79;100.00;99088.75;6214560;23;20001;-77
2023/10/27 05:38:03;;;;;;;17.77;11.75;;;;;;;9.74;100.00;99078.06;6214857;23;20496;-77
2023/10/27 05:40:31;;;;;;;16.45;11.43;;;;;;;9.71;100.00;99073.97;6214452;23;20004;-79
2023/10/27 05:42:57;;;;;;;20.17;10.70;;;;;;;9.74;100.00;99081.44;6214522;23;20039;-78
2023/10/27 05:45:22;;;;;;;16.80;11.13;;;;;;;9.71;100.00;99076.53;6216724;23;20000;-81
2023/10/27 05:47:47;;;;;;;18.30;11.38;;;;;;;9.53;100.00;99046.38;6216240;23;20008;-80
2023/10/27 05:50:13;;;;;;;21.05;11.95;;;;;;;9.68;100.00;99076.00;6216654;23;20004;-80
2023/10/27 05:52:38;;;;;;;18.60;10.95;;;;;;;9.66;100.00;99073.56;6216587;23;20008;-79
2023/10/27 05:55:04;;;;;;;19.52;12.00;;;;;;;9.65;100.00;99074.50;6216199;23;20079;-81
2023/10/27 05:57:29;;;;;;;19.90;10.63;;;;;;;9.63;100.00;99075.56;6216087;23;20009;-81
2023/10/27 05:59:55;;;;;;;19.70;11.27;;;;;;;9.66;100.00;99070.97;6216155;23;20008;-82
2023/10/27 06:02:20;;;;;;;17.73;10.90;;;;;;;9.67;100.00;99074.38;6216100;23;20028;-80
2023/10/27 06:04:45;;;;;;;15.93;10.23;;;;;;;9.67;100.00;99080.34;6216289;23;20012;-82
2023/10/27 06:07:15;;;;;;;19.75;11.15;;;;;;;9.64;100.00;99066.91;6216326;23;20006;-80
2023/10/27 06:09:41;;;;;;;16.42;11.18;;;;;;;9.69;100.00;99080.19;6215836;23;20000;-81
2023/10/27 06:12:07;;;;;;;20.83;10.70;;;;;;;9.70;100.00;99079.25;6216037;23;20070;-81
2023/10/27 06:14:32;;;;;;;17.25;10.48;;;;;;;9.63;100.00;99067.84;6216417;23;20044;-79
2023/10/27 06:16:58;;;;;;;16.27;10.57;;;;;;;9.71;100.00;99081.69;6216259;23;20415;-80
2023/10/27 06:19:24;;;;;;;16.48;10.68;;;;;;;9.54;100.00;99053.16;6216444;23;20013;-78
2023/10/27 06:21:49;;;;;;;18.30;10.82;;;;;;;9.72;100.00;99087.66;6188153;23;20039;-76
2023/10/27 06:24:15;;;;;;;20.15;10.18;;;;;;;9.76;100.00;99089.84;6216118;23;20008;-77
2023/10/27 06:26:41;;;;;;;16.45;10.90;;;;;;;9.75;100.00;99090.81;6216249;23;20009;-78
2023/10/27 06:29:07;;;;;;;17.23;10.57;;;;;;;9.75;100.00;99085.66;6216683;23;20349;-77
2023/10/27 06:31:32;;;;;;;19.58;10.90;;;;;;;9.80;100.00;99092.97;6215794;23;20135;-76
2023/10/27 06:33:58;;;;;;;17.73;10.85;;;;;;;9.81;100.00;99089.44;6216220;23;20004;-73
2023/10/27 06:36:25;;;;;;;16.63;11.25;;;;;;;9.82;100.00;99096.22;6216031;23;20339;-76
2023/10/27 06:38:50;;;;;;;14.68;10.18;;;;;;;9.82;100.00;99098.78;6215672;23;20088;-78
2023/10/27 06:41:15;;;;;;;16.98;10.15;;;;;;;9.81;100.00;99097.16;6216105;23;20051;-77
2023/10/27 06:43:41;;;;;;;16.55;10.32;;;;;;;9.84;100.00;99090.94;6187762;23;20059;-73
2023/10/27 06:46:06;;;;;;;19.33;11.27;;;;;;;9.84;100.00;99098.69;6188735;23;20381;-76
2023/10/27 06:48:32;;;;;;;16.88;11.07;;;;;;;9.84;100.00;99096.09;6216117;23;20008;-81
2023/10/27 06:50:57;;;;;;;18.17;11.85;;;;;;;9.85;100.00;99097.72;6213972;23;20011;-79
2023/10/27 06:53:22;;;;;;;16.77;11.02;;;;;;;9.83;100.00;99100.41;6215574;23;20437;-77
2023/10/27 06:55:48;;;;;;;15.57;10.60;;;;;;;9.75;100.00;99087.41;6187875;23;20039;-77
2023/10/27 06:58:13;;;;;;;17.33;10.65;;;;;;;9.82;100.00;99105.72;6215448;23;20091;-75
2023/10/27 07:00:38;;;;;;;16.27;11.25;;;;;;;9.81;100.00;99101.50;6215727;23;20008;-75
2023/10/27 07:03:04;;;;;;;19.30;12.05;;;;;;;9.83;100.00;99104.75;6215723;23;20005;-73
2023/10/27 07:05:29;;;;;;;15.48;11.10;;;;;;;9.86;100.00;99110.50;6215342;23;20438;-74
2023/10/27 07:07:54;;;;;;;16.10;10.65;;;;;;;9.85;100.00;99108.88;6215374;23;20005;-72
2023/10/27 07:10:20;;;;;;;17.17;10.90;;;;;;;9.88;100.00;99111.16;6215465;23;20334;-71
2023/10/27 07:12:45;;;;;;;16.75;11.27;;;;;;;9.90;100.00;99113.59;6215472;23;20453;-76
2023/10/27 07:15:12;;;;;;;16.50;11.32;;;;;;;9.80;100.00;99099.88;6215648;23;20411;-79
2023/10/27 07:17:38;;;;;;;16.02;11.15;;;;;;;9.94;100.00;99125.28;6215209;23;20043;-81
2023/10/27 07:20:03;;;;;;;16.83;11.20;;;;;;;9.93;100.00;99119.31;6215187;23;20335;-74
2023/10/27 07:22:30;;;;;;;19.23;10.98;;;;;;;9.98;100.00;99124.06;6215764;23;20004;-73
2023/10/27 07:24:55;;;;;;;16.70;11.02;;;;;;;9.89;100.00;99110.22;6215430;23;20032;-73
2023/10/27 07:27:21;;;;;;;15.80;11.63;;;;;;;10.03;100.00;99132.22;6188603;23;20027;-75
2023/10/27 07:29:46;;;;;;;17.50;11.43;;;;;;;9.96;100.00;99121.63;6215101;23;20080;-75
2023/10/27 07:32:12;;;;;;;15.50;10.60;;;;;;;9.99;100.00;99118.75;6188492;23;20000;-74
2023/10/27 07:34:37;;;;;;;20.45;11.52;;;;;;;10.04;100.00;99113.22;6215088;23;20028;-75
2023/10/27 07:37:04;;;;;;;14.05;10.20;;;;;;;10.12;100.00;99133.97;6215426;23;20423;-77
2023/10/27 07:39:29;;;;;;;17.95;10.77;;;;;;;10.12;100.00;99130.56;6215030;23;20001;-74
2023/10/27 07:41:56;;;;;;;14.75;10.13;;;;;;;10.15;100.00;99136.31;6215508;23;20178;-76
2023/10/27 07:44:22;;;;;;;13.48;10.48;;;;;;;10.17;100.00;99142.13;6215163;23;20000;-76
2023/10/27 07:46:47;;;;;;;15.18;10.60;;;;;;;10.08;100.00;99130.03;6213121;23;20453;-78
2023/10/27 07:49:12;;;;;;;18.17;12.27;;;;;;;10.05;100.00;99131.13;6214733;23;19999;-75
2023/10/27 07:51:38;;;;;;;13.77;10.18;;;;;;;10.14;100.00;99134.69;6215128;23;20039;-77
2023/10/27 07:54:04;;;;;;;12.55;10.02;;;;;;;10.21;100.00;99143.47;6215556;23;20015;-75
2023/10/27 07:56:32;;;;;;;13.10;9.50;;;;;;;10.20;100.00;99141.03;6215238;23;20375;-76
2023/10/27 07:58:58;;;;;;;15.00;10.88;;;;;;;10.18;100.00;99135.22;6214792;23;20096;-78
2023/10/27 08:01:24;;;;;;;16.90;12.70;;;;;;;10.36;100.00;99143.94;6214962;23;20028;-75
2023/10/27 08:03:50;;;;;;;15.63;12.25;;;;;;;10.29;100.00;99143.66;6214764;23;20005;-76
2023/10/27 08:06:16;;;;;;;14.45;11.27;;;;;;;10.38;100.00;99149.75;6215086;23;20059;-75
2023/10/27 08:08:42;;;;;;;14.45;10.05;;;;;;;10.44;100.00;99153.59;6214997;23;20039;-75
2023/10/27 08:11:07;;;;;;;14.27;9.68;;;;;;;10.47;100.00;99148.94;6215150;23;20001;-78
2023/10/27 08:13:33;;;;;;;13.10;9.45;;;;;;;10.41;100.00;99141.75;6214947;23;20007;-75
2023/10/27 08:15:59;;;;;;;13.05;9.23;;;;;;;10.37;100.00;99135.25;6214574;23;20009;-76
2023/10/27 08:18:25;;;;;;;13.77;9.50;;;;;;;10.45;100.00;99143.13;6214853;23;20043;-76
2023/10/27 08:20:52;;;;;;;13.75;8.35;;;;;;;10.47;100.00;99151.53;6212663;23;20347;-72
2023/10/27 08:23:17;;;;;;;11.13;8.48;;;;;;;10.32;100.00;99124.50;6215901;23;20071;-76
2023/10/27 08:25:43;;;;;;;12.32;8.55;;;;;;;10.34;100.00;99131.16;6215019;23;20427;-76
2023/10/27 08:28:09;;;;;;;13.90;9.00;;;;;;;10.45;100.00;99143.13;6214723;23;20075;-76
2023/10/27 08:30:34;;;;;;;12.88;9.20;;;;;;;10.12;100.00;99107.38;6214729;23;20004;-76
2023/10/27 08:32:59;;;;;;;11.85;8.32;;;;;;;10.43;100.00;99170.84;6214885;23;20011;-74
2023/10/27 08:35:25;;;;;;;13.95;9.23;;;;;;;10.40;100.00;99162.53;6214552;23;20015;-76
2023/10/27 08:37:50;;;;;;;12.43;8.80;;;;;;;10.45;100.00;99176.66;6214780;23;20310;-79
2023/10/27 08:40:17;;;;;;;10.48;8.52;;;;;;;10.39;100.00;99172.03;6215090;23;20008;-80
2023/10/27 08:42:44;;;;;;;12.65;9.02;;;;;;;10.46;100.00;99186.03;6187745;23;20012;-82
2023/10/27 08:45:10;;;;;;;12.48;7.90;;;;;;;10.51;100.00;99183.84;6214277;23;20000;-81
2023/10/27 08:47:36;;;;;;;10.93;8.18;;;;;;;10.28;100.00;99143.78;6215061;23;20015;-79
2023/10/27 08:50:04;;;;;;;10.50;7.85;;;;;;;10.51;100.00;99188.19;6215223;23;20023;-76
2023/10/27 08:52:33;;;;;;;13.98;8.27;;;;;;;10.55;100.00;99177.47;6215231;23;20088;-78
2023/10/27 08:55:02;;;;;;;13.43;9.00;;;;;;;10.57;100.00;99180.72;6214933;23;20032;-81
2023/10/27 08:57:27;;;;;;;10.23;7.82;;;;;;;10.60;100.00;99182.22;6214640;23;20087;-83
2023/10/27 08:59:54;;;;;;;10.85;8.23;;;;;;;10.57;100.00;99177.34;6214961;23;20118;-80
2023/10/27 09:02:33;;;;;;;11.18;7.68;;;;;;;10.53;100.00;99166.47;6215020;23;20008;-81
2023/10/27 09:05:04;;;;;;;10.23;6.68;;;;;;;10.63;100.00;99189.72;6214950;23;20322;-80
2023/10/27 09:07:33;;;;;;;9.95;6.53;;;;;;;10.59;100.00;99181.41;6214681;23;20004;-85
2023/10/27 09:10:00;;;;;;;9.70;6.95;;;;;;;10.66;100.00;99189.41;6214808;23;20015;-73
2023/10/27 09:12:27;;;;;;;9.48;6.97;;;;;;;10.48;100.00;99157.50;6214625;23;20004;-73
2023/10/27 09:15:07;;;;;;;9.25;6.60;;;;;;;10.76;100.00;99194.56;6212938;23;20011;-73
2023/10/27 09:17:55;;;;;;;9.27;7.22;;;;;;;10.83;100.00;99199.06;6215150;23;20005;-72
2023/10/27 09:20:22;;;;;;;10.05;6.70;;;;;;;10.82;100.00;99204.38;6216398;23;20004;-72
2023/10/27 09:23:04;;;;;;;11.38;7.28;;;;;;;10.88;100.00;99201.22;6216651;23;20394;-80
2023/10/27 09:25:31;;;;;;;10.52;6.72;;;;;;;10.89;100.00;99205.41;6216773;23;20032;-74
2023/10/27 09:27:58;;;;;;;12.60;7.45;;;;;;;10.89;100.00;99192.50;6216764;23;20024;-77
2023/10/27 09:30:32;;;;;;;10.05;7.20;;;;;;;11.00;100.00;99199.28;6216850;23;20001;-73
2023/10/27 09:33:23;;;;;;;11.57;7.07;;;;;;;11.04;100.00;99200.66;6216665;23;20431;-78
2023/10/27 09:35:51;;;;;;;8.45;6.30;;;;;;;11.06;100.00;99202.13;6216457;23;20419;-72
2023/10/27 09:38:17;;;;;;;9.43;5.97;;;;;;;11.08;100.00;99204.56;6215044;23;20031;-72
2023/10/27 09:40:43;;;;;;;8.57;6.22;;;;;;;10.96;100.00;99182.44;6216735;23;20008;-76
2023/10/27 09:43:19;;;;;;;8.18;6.05;;;;;;;11.09;100.00;99214.75;6216467;23;20012;-74
2023/10/27 09:45:52;;;;;;;9.23;5.70;;;;;;;11.05;100.00;99203.09;6216565;23;20019;-73
2023/10/27 09:48:21;;;;;;;8.57;6.18;;;;;;;11.10;100.00;99205.25;6215298;23;20431;-73
2023/10/27 09:50:49;;;;;;;9.38;6.68;;;;;;;11.15;100.00;99200.50;6216301;23;20000;-77
2023/10/27 09:53:15;;;;;;;7.90;5.38;;;;;;;11.14;100.00;99191.13;6213643;23;20117;-75
2023/10/27 09:55:42;;;;;;;9.73;5.78;;;;;;;11.24;100.00;99201.41;6216562;23;20339;-73
2023/10/27 09:58:08;;;;;;;7.05;5.30;;;;;;;11.28;100.00;99207.94;6216137;23;20024;-74
2023/10/27 10:00:34;;;;;;;8.45;6.35;;;;;;;11.31;100.00;99190.38;6216881;23;20004;-75
2023/10/27 10:03:02;;;;;;;7.28;5.05;;;;;;;11.34;100.00;99178.94;6216304;23;20051;-72
2023/10/27 10:05:28;;;;;;;7.75;5.95;;;;;;;11.40;100.00;99193.88;6216109;23;20469;-73
2023/10/27 10:07:56;;;;;;;10.52;5.78;;;;;;;11.28;100.00;99172.56;6216614;23;20008;-74
2023/10/27 10:10:34;;;;;;;8.18;5.60;;;;;;;11.42;100.00;99186.81;6216462;23;20000;-83
2023/10/27 10:13:19;;;;;;;8.85;5.88;;;;;;;11.48;100.00;99191.41;6214928;23;20012;-79
2023/10/27 10:15:46;;;;;;;7.63;5.80;;;;;;;11.46;100.00;99177.81;6217041;23;20390;-81
2023/10/27 10:18:20;;;;;;;7.95;6.25;;;;;;;11.70;100.00;99196.22;6214903;23;19996;-81
2023/10/27 10:20:49;;;;;;;8.15;5.75;;;;;;;11.80;100.00;99197.94;6216946;23;20035;-83
2023/10/27 10:23:15;;;;;;;8.45;5.35;;;;;;;11.88;100.00;99204.03;6215707;23;20071;-78
2023/10/27 10:25:53;;;;;;;8.32;5.88;;;;;;;12.03;100.00;99206.94;6215895;23;20012;-78
2023/10/27 10:28:18;;;;;;;8.50;5.57;;;;;;;12.00;100.00;99212.44;6215849;23;20001;-75
2023/10/27 10:30:48;;;;;;;9.70;6.82;;;;;;;11.89;100.00;99200.47;6216753;23;20092;-76
2023/10/27 10:33:16;;;;;;;8.48;5.85;;;;;;;11.95;100.00;99225.78;6215847;23;20021;-75
2023/10/27 10:35:46;;;;;;;8.85;6.05;;;;;;;11.93;100.00;99234.66;6215972;23;20004;-75
2023/10/27 10:38:23;;;;;;;7.50;5.60;;;;;;;11.93;100.00;99227.69;6215817;23;20024;-79
2023/10/27 10:40:49;;;;;;;7.32;5.10;;;;;;;11.88;100.00;99224.72;6216101;23;20323;-78
2023/10/27 10:43:19;;;;;;;7.82;5.38;;;;;;;11.91;100.00;99228.81;6215781;23;20020;-78
2023/10/27 10:45:50;;;;;;;8.25;5.03;;;;;;;11.89;100.00;99236.69;6215945;23;20016;-85
2023/10/27 10:48:16;;;;;;;8.20;4.77;;;;;;;11.80;100.00;99226.41;6216152;23;20157;-84
2023/10/27 10:50:42;;;;;;;8.38;5.53;;;;;;;11.76;100.00;99224.06;6215312;23;20139;-79
2023/10/27 10:53:16;;;;;;;8.73;5.18;;;;;;;11.84;100.00;99231.16;6215192;23;20035;-80
2023/10/27 10:55:43;;;;;;;7.28;5.03;;;;;;;11.82;100.00;99227.91;6215692;23;20004;-77
2023/10/27 10:58:08;;;;;;;7.00;4.22;;;;;;;11.63;100.00;99202.91;6215680;23;20023;-83
2023/10/27 11:00:37;;;;;;;7.22;4.50;;;;;;;11.64;100.00;99214.88;6216157;23;20004;-84
2023/10/27 11:03:08;;;;;;;6.82;4.75;;;;;;;11.61;100.00;99222.13;6215641;23;20035;-81
2023/10/27 11:05:34;;;;;;;8.18;4.60;;;;;;;11.55;100.00;99225.25;6215269;23;20075;-81
2023/10/27 11:08:00;;;;;;;8.52;5.97;;;;;;;11.51;100.00;99229.91;6215518;23;20472;-81
2023/10/27 11:10:26;;;;;;;9.18;6.43;;;;;;;11.39;100.00;99225.84;6216171;23;20004;-80